createdAt,value
2017-05-09T00:00:01.589Z,0
2017-05-09T00:01:01.605Z,0
2017-05-09T00:02:01.885Z,0
2017-05-09T00:03:01.505Z,0
2017-05-09T00:04:01.826Z,0
2017-05-09T00:05:01.756Z,0
2017-05-09T00:06:01.736Z,0
2017-05-09T00:07:01.709Z,0
2017-05-09T00:08:01.929Z,0
2017-05-09T00:09:01.661Z,0
2017-05-09T00:10:01.688Z,0
2017-05-09T00:11:01.604Z,0
2017-05-09T00:12:01.292Z,0
2017-05-09T00:13:01.557Z,0
2017-05-09T00:14:01.546Z,0
2017-05-09T00:15:01.535Z,0
2017-05-09T00:16:01.487Z,0
2017-05-09T00:17:01.466Z,0
2017-05-09T00:18:01.445Z,0
2017-05-09T00:19:01.126Z,0
2017-05-09T00:20:01.396Z,0
2017-05-09T00:21:01.427Z,0
2017-05-09T00:22:01.354Z,0
2017-05-09T00:23:01.567Z,0
2017-05-09T00:24:01.565Z,0
2017-05-09T00:25:01.293Z,0
2017-05-09T00:26:01.249Z,0
2017-05-09T00:27:01.288Z,0
2017-05-09T00:28:01.204Z,0
2017-05-09T00:29:00.916Z,0
2017-05-09T00:30:01.153Z,0
2017-05-09T00:31:01.122Z,0
2017-05-09T00:32:01.366Z,0
2017-05-09T00:33:00.804Z,0
2017-05-09T00:34:01.077Z,0
2017-05-09T00:35:01.044Z,0
2017-05-09T00:36:01.065Z,0
2017-05-09T00:37:00.986Z,0
2017-05-09T00:38:00.964Z,0
2017-05-09T00:39:00.943Z,0
2017-05-09T00:40:00.908Z,0
2017-05-09T00:41:00.902Z,0
2017-05-09T00:42:00.600Z,0
2017-05-09T00:43:00.270Z,0
2017-05-09T00:44:00.823Z,0
2017-05-09T00:45:00.774Z,0
2017-05-09T00:46:00.810Z,0
2017-05-09T00:47:00.732Z,0
2017-05-09T00:48:00.716Z,0
2017-05-09T00:49:00.687Z,0
2017-05-09T00:50:00.354Z,0
2017-05-09T00:51:00.348Z,0
2017-05-09T00:52:00.619Z,0
2017-05-09T00:53:00.614Z,0
2017-05-09T00:54:00.565Z,0
2017-05-09T00:55:00.528Z,0
2017-05-09T00:56:00.519Z,0
2017-05-09T00:57:00.486Z,0
2017-05-09T00:58:00.476Z,0
2017-05-09T00:59:00.443Z,0
2017-05-09T01:00:00.408Z,0
2017-05-09T01:01:00.389Z,0
2017-05-09T01:02:00.411Z,0
2017-05-09T01:03:00.352Z,0
2017-05-09T01:04:00.011Z,0
2017-05-09T01:05:00.304Z,0
2017-05-09T01:06:00.268Z,0
2017-05-09T01:07:00.246Z,0
2017-05-09T01:08:00.217Z,0
2017-05-09T01:09:00.183Z,0
2017-05-09T01:10:00.155Z,0
2017-05-09T01:10:59.847Z,0
2017-05-09T01:12:00.113Z,0
2017-05-09T01:12:59.796Z,0
2017-05-09T01:14:00.067Z,0
2017-05-09T01:15:00.040Z,0
2017-05-09T01:16:00.005Z,0
2017-05-09T01:16:59.990Z,0
2017-05-09T01:17:59.966Z,0
2017-05-09T01:18:59.947Z,0
2017-05-09T01:20:00.159Z,0
2017-05-09T01:20:59.888Z,0
2017-05-09T01:21:59.869Z,0
2017-05-09T01:22:59.850Z,0
2017-05-09T01:23:59.814Z,0
2017-05-09T01:24:59.790Z,0
2017-05-09T01:25:59.756Z,0
2017-05-09T01:26:59.159Z,0
2017-05-09T01:27:59.718Z,0
2017-05-09T01:28:59.693Z,0
2017-05-09T01:29:59.685Z,0
2017-05-09T01:30:59.356Z,0
2017-05-09T01:31:59.616Z,0
2017-05-09T01:32:59.597Z,0
2017-05-09T01:33:59.251Z,0
2017-05-09T01:34:59.535Z,0
2017-05-09T01:35:59.518Z,0
2017-05-09T01:36:59.490Z,0
2017-05-09T01:37:59.469Z,0
2017-05-09T01:38:59.440Z,0
2017-05-09T01:39:59.409Z,0
2017-05-09T01:40:59.427Z,0
2017-05-09T01:41:59.390Z,0
2017-05-09T01:42:59.389Z,0
2017-05-09T01:43:59.308Z,0
2017-05-09T01:44:58.993Z,0
2017-05-09T01:45:59.270Z,0
2017-05-09T01:46:59.232Z,0
2017-05-09T01:47:59.210Z,0
2017-05-09T01:48:58.886Z,0
2017-05-09T01:49:59.167Z,0
2017-05-09T01:50:59.192Z,0
2017-05-09T01:51:59.122Z,0
2017-05-09T01:52:58.936Z,0
2017-05-09T01:53:58.769Z,0
2017-05-09T01:54:58.741Z,0
2017-05-09T01:55:59.064Z,0
2017-05-09T01:56:58.703Z,0
2017-05-09T01:57:58.372Z,0
2017-05-09T01:58:58.345Z,0
2017-05-09T01:59:58.627Z,0
2017-05-09T02:00:58.288Z,0
2017-05-09T02:01:58.860Z,0
2017-05-09T02:02:58.541Z,0
2017-05-09T02:03:58.762Z,0
2017-05-09T02:04:57.882Z,0
2017-05-09T02:05:58.762Z,0
2017-05-09T02:06:58.778Z,0
2017-05-09T02:07:58.713Z,0
2017-05-09T02:08:58.679Z,0
2017-05-09T02:09:58.659Z,0
2017-05-09T02:10:58.633Z,0
2017-05-09T02:11:58.610Z,0
2017-05-09T02:12:58.282Z,0
2017-05-09T02:13:58.551Z,0
2017-05-09T02:14:58.233Z,0
2017-05-09T02:15:58.500Z,0
2017-05-09T02:16:58.480Z,0
2017-05-09T02:17:58.464Z,0
2017-05-09T02:18:58.430Z,0
2017-05-09T02:19:58.093Z,0
2017-05-09T02:20:58.363Z,0
2017-05-09T02:21:58.353Z,0
2017-05-09T02:22:58.325Z,0
2017-05-09T02:23:58.305Z,0
2017-05-09T02:24:58.277Z,0
2017-05-09T02:25:58.243Z,0
2017-05-09T02:26:58.222Z,0
2017-05-09T02:27:58.450Z,0
2017-05-09T02:28:58.224Z,0
2017-05-09T02:29:58.204Z,0
2017-05-09T02:30:58.119Z,0
2017-05-09T02:31:58.136Z,0
2017-05-09T02:32:58.072Z,0
2017-05-09T02:33:58.065Z,0
2017-05-09T02:34:58.015Z,0
2017-05-09T02:35:57.729Z,0
2017-05-09T02:36:57.668Z,0
2017-05-09T02:37:58.001Z,0
2017-05-09T02:38:57.970Z,0
2017-05-09T02:39:57.910Z,0
2017-05-09T02:40:57.572Z,0
2017-05-09T02:41:57.889Z,0
2017-05-09T02:42:57.817Z,0
2017-05-09T02:43:57.513Z,0
2017-05-09T02:44:57.764Z,0
2017-05-09T02:45:57.745Z,0
2017-05-09T02:46:57.732Z,0
2017-05-09T02:47:57.691Z,0
2017-05-09T02:48:57.714Z,0
2017-05-09T02:49:57.690Z,0
2017-05-09T02:50:57.606Z,0
2017-05-09T02:51:57.583Z,0
2017-05-09T02:52:57.564Z,0
2017-05-09T02:53:57.536Z,0
2017-05-09T02:54:57.520Z,0
2017-05-09T02:55:57.483Z,0
2017-05-09T02:56:57.453Z,0
2017-05-09T02:57:57.626Z,0
2017-05-09T02:58:57.449Z,0
2017-05-09T02:59:57.383Z,0
2017-05-09T03:00:57.354Z,0
2017-05-09T03:01:57.330Z,0
2017-05-09T03:02:57.552Z,0
2017-05-09T03:03:57.281Z,0
2017-05-09T03:04:57.265Z,0
2017-05-09T03:05:57.224Z,0
2017-05-09T03:06:57.208Z,0
2017-05-09T03:07:57.177Z,0
2017-05-09T03:08:57.153Z,0
2017-05-09T03:09:57.124Z,0
2017-05-09T03:10:57.098Z,0
2017-05-09T03:11:57.066Z,0
2017-05-09T03:12:57.304Z,0
2017-05-09T03:13:57.025Z,0
2017-05-09T03:14:56.989Z,0
2017-05-09T03:15:56.966Z,0
2017-05-09T03:16:56.951Z,0
2017-05-09T03:17:56.924Z,0
2017-05-09T03:18:56.889Z,0
2017-05-09T03:19:57.116Z,0
2017-05-09T03:20:56.844Z,0
2017-05-09T03:21:56.824Z,0
2017-05-09T03:22:56.800Z,0
2017-05-09T03:23:56.769Z,0
2017-05-09T03:24:56.733Z,0
2017-05-09T03:25:56.712Z,0
2017-05-09T03:26:56.695Z,0
2017-05-09T03:27:56.666Z,0
2017-05-09T03:28:56.333Z,0
2017-05-09T03:29:56.607Z,0
2017-05-09T03:30:56.288Z,0
2017-05-09T03:31:56.564Z,0
2017-05-09T03:32:56.537Z,0
2017-05-09T03:33:56.516Z,0
2017-05-09T03:34:55.873Z,0
2017-05-09T03:35:56.459Z,0
2017-05-09T03:36:56.436Z,0
2017-05-09T03:37:56.414Z,0
2017-05-09T03:38:56.440Z,5
2017-05-09T03:39:56.359Z,5
2017-05-09T03:40:56.323Z,5
2017-05-09T03:41:56.302Z,5
2017-05-09T03:42:56.285Z,5
2017-05-09T03:43:55.972Z,5
2017-05-09T03:44:56.227Z,5
2017-05-09T03:45:56.230Z,5
2017-05-09T03:46:55.882Z,10
2017-05-09T03:47:55.848Z,10
2017-05-09T03:48:55.848Z,10
2017-05-09T03:49:56.096Z,10
2017-05-09T03:50:56.068Z,10
2017-05-09T03:51:56.041Z,10
2017-05-09T03:52:56.020Z,15
2017-05-09T03:53:55.700Z,15
2017-05-09T03:54:55.675Z,15
2017-05-09T03:55:55.935Z,15
2017-05-09T03:56:55.910Z,15
2017-05-09T03:57:55.983Z,20
2017-05-09T03:58:55.862Z,20
2017-05-09T03:59:55.837Z,20
2017-05-09T04:00:55.815Z,25
2017-05-09T04:01:55.789Z,25
2017-05-09T04:02:55.767Z,25
2017-05-09T04:03:55.737Z,25
2017-05-09T04:04:55.716Z,30
2017-05-09T04:05:56.937Z,30
2017-05-09T04:06:55.652Z,35
2017-05-09T04:07:55.631Z,35
2017-05-09T04:08:55.605Z,40
2017-05-09T04:09:55.588Z,45
2017-05-09T04:10:55.255Z,50
2017-05-09T04:11:55.527Z,55
2017-05-09T04:12:55.499Z,60
2017-05-09T04:13:55.479Z,65
2017-05-09T04:14:55.707Z,75
2017-05-09T04:15:55.477Z,80
2017-05-09T04:16:55.443Z,80
2017-05-09T04:17:55.380Z,90
2017-05-09T04:18:55.347Z,95
2017-05-09T04:19:55.343Z,100
2017-05-09T04:20:54.991Z,100
2017-05-09T04:21:55.286Z,100
2017-05-09T04:22:55.249Z,105
2017-05-09T04:23:55.218Z,110
2017-05-09T04:24:55.235Z,110
2017-05-09T04:25:55.163Z,115
2017-05-09T04:26:55.136Z,115
2017-05-09T04:27:55.118Z,120
2017-05-09T04:28:55.095Z,130
2017-05-09T04:29:55.064Z,135
2017-05-09T04:30:55.053Z,140
2017-05-09T04:31:55.020Z,150
2017-05-09T04:32:55.045Z,155
2017-05-09T04:33:54.977Z,160
2017-05-09T04:34:54.955Z,160
2017-05-09T04:35:55.168Z,165
2017-05-09T04:36:54.939Z,170
2017-05-09T04:37:54.874Z,175
2017-05-09T04:38:54.849Z,180
2017-05-09T04:39:54.525Z,180
2017-05-09T04:40:54.843Z,190
2017-05-09T04:41:54.822Z,190
2017-05-09T04:42:54.452Z,195
2017-05-09T04:43:54.716Z,200
2017-05-09T04:44:54.704Z,205
2017-05-09T04:45:54.392Z,210
2017-05-09T04:46:54.658Z,210
2017-05-09T04:47:54.676Z,190
2017-05-09T04:48:54.009Z,220
2017-05-09T04:49:54.586Z,225
2017-05-09T04:50:54.548Z,225
2017-05-09T04:51:54.541Z,230
2017-05-09T04:52:54.211Z,230
2017-05-09T04:53:54.189Z,235
2017-05-09T04:54:54.467Z,240
2017-05-09T04:55:54.432Z,250
2017-05-09T04:56:54.463Z,260
2017-05-09T04:57:54.100Z,265
2017-05-09T04:58:54.374Z,270
2017-05-09T04:59:54.343Z,255
2017-05-09T05:00:54.340Z,300
2017-05-09T05:01:54.045Z,300
2017-05-09T05:02:54.272Z,305
2017-05-09T05:03:54.264Z,320
2017-05-09T05:04:54.232Z,345
2017-05-09T05:05:54.206Z,350
2017-05-09T05:06:54.187Z,360
2017-05-09T05:07:54.168Z,300
2017-05-09T05:08:53.835Z,335
2017-05-09T05:09:54.229Z,320
2017-05-09T05:10:54.088Z,305
2017-05-09T05:11:54.139Z,310
2017-05-09T05:12:53.752Z,320
2017-05-09T05:13:54.030Z,330
2017-05-09T05:14:53.714Z,350
2017-05-09T05:15:53.380Z,345
2017-05-09T05:16:53.967Z,395
2017-05-09T05:17:53.932Z,415
2017-05-09T05:18:53.314Z,425
2017-05-09T05:19:53.590Z,430
2017-05-09T05:20:53.922Z,435
2017-05-09T05:21:53.855Z,445
2017-05-09T05:22:53.831Z,450
2017-05-09T05:23:53.824Z,460
2017-05-09T05:24:53.779Z,445
2017-05-09T05:25:53.771Z,360
2017-05-09T05:26:53.762Z,385
2017-05-09T05:27:53.745Z,405
2017-05-09T05:28:53.703Z,425
2017-05-09T05:29:53.687Z,435
2017-05-09T05:30:53.652Z,490
2017-05-09T05:31:53.659Z,500
2017-05-09T05:32:53.627Z,505
2017-05-09T05:33:53.652Z,510
2017-05-09T05:34:53.281Z,525
2017-05-09T05:35:53.249Z,520
2017-05-09T05:36:53.256Z,530
2017-05-09T05:37:53.511Z,525
2017-05-09T05:38:53.489Z,530
2017-05-09T05:39:53.464Z,535
2017-05-09T05:40:53.445Z,550
2017-05-09T05:41:53.123Z,560
2017-05-09T05:42:53.403Z,570
2017-05-09T05:43:53.378Z,575
2017-05-09T05:44:53.057Z,580
2017-05-09T05:45:53.034Z,580
2017-05-09T05:46:53.316Z,590
2017-05-09T05:47:53.010Z,575
2017-05-09T05:48:52.976Z,605
2017-05-09T05:49:53.305Z,620
2017-05-09T05:50:52.938Z,635
2017-05-09T05:51:53.218Z,645
2017-05-09T05:52:53.254Z,655
2017-05-09T05:53:53.182Z,660
2017-05-09T05:54:53.148Z,625
2017-05-09T05:55:52.837Z,530
2017-05-09T05:56:53.120Z,695
2017-05-09T05:57:53.101Z,700
2017-05-09T05:58:53.082Z,710
2017-05-09T05:59:53.056Z,715
2017-05-09T06:00:53.035Z,725
2017-05-09T06:01:53.018Z,730
2017-05-09T06:02:53.011Z,735
2017-05-09T06:03:52.373Z,745
2017-05-09T06:04:52.963Z,740
2017-05-09T06:05:52.637Z,725
2017-05-09T06:06:52.606Z,680
2017-05-09T06:07:52.294Z,675
2017-05-09T06:08:52.926Z,730
2017-05-09T06:09:52.894Z,695
2017-05-09T06:10:52.843Z,765
2017-05-09T06:11:52.823Z,805
2017-05-09T06:12:52.818Z,815
2017-05-09T06:13:52.781Z,825
2017-05-09T06:14:52.800Z,825
2017-05-09T06:15:52.745Z,810
2017-05-09T06:16:52.724Z,840
2017-05-09T06:17:52.720Z,850
2017-05-09T06:18:52.399Z,845
2017-05-09T06:19:52.366Z,870
2017-05-09T06:20:52.644Z,880
2017-05-09T06:21:52.686Z,885
2017-05-09T06:22:52.622Z,885
2017-05-09T06:23:53.639Z,890
2017-05-09T06:24:52.579Z,890
2017-05-09T06:25:52.555Z,905
2017-05-09T06:26:52.547Z,910
2017-05-09T06:27:52.528Z,920
2017-05-09T06:28:52.509Z,925
2017-05-09T06:29:52.494Z,930
2017-05-09T06:30:52.489Z,955
2017-05-09T06:31:52.455Z,800
2017-05-09T06:32:52.433Z,890
2017-05-09T06:33:52.155Z,915
2017-05-09T06:34:52.081Z,970
2017-05-09T06:35:52.378Z,890
2017-05-09T06:36:52.363Z,1005
2017-05-09T06:37:52.340Z,1020
2017-05-09T06:38:52.320Z,1025
2017-05-09T06:39:52.305Z,1025
2017-05-09T06:40:52.293Z,1030
2017-05-09T06:41:52.274Z,1035
2017-05-09T06:42:52.265Z,1050
2017-05-09T06:43:52.236Z,1065
2017-05-09T06:44:52.214Z,1075
2017-05-09T06:45:51.899Z,1060
2017-05-09T06:46:51.885Z,1055
2017-05-09T06:47:52.168Z,1040
2017-05-09T06:48:51.857Z,1110
2017-05-09T06:49:52.132Z,1120
2017-05-09T06:50:52.110Z,1120
2017-05-09T06:51:51.796Z,1125
2017-05-09T06:52:52.084Z,1115
2017-05-09T06:53:52.081Z,1105
2017-05-09T06:54:52.064Z,1070
2017-05-09T06:55:52.050Z,1120
2017-05-09T06:56:52.024Z,1045
2017-05-09T06:57:52.061Z,1035
2017-05-09T06:58:51.979Z,1155
2017-05-09T06:59:52.025Z,1160
2017-05-09T07:00:51.650Z,1165
2017-05-09T07:01:51.986Z,1185
2017-05-09T07:02:51.912Z,1185
2017-05-09T07:03:51.895Z,1210
2017-05-09T07:04:51.873Z,1225
2017-05-09T07:05:51.867Z,915
2017-05-09T07:06:51.857Z,1235
2017-05-09T07:07:51.882Z,1240
2017-05-09T07:08:51.870Z,1215
2017-05-09T07:09:51.802Z,1185
2017-05-09T07:10:51.806Z,1190
2017-05-09T07:11:51.766Z,1170
2017-05-09T07:12:51.758Z,1145
2017-05-09T07:13:51.736Z,1145
2017-05-09T07:14:51.715Z,1205
2017-05-09T07:15:51.701Z,1175
2017-05-09T07:16:51.699Z,1230
2017-05-09T07:17:51.776Z,1060
2017-05-09T07:18:51.357Z,1255
2017-05-09T07:19:51.650Z,1305
2017-05-09T07:20:51.632Z,1310
2017-05-09T07:21:51.619Z,1285
2017-05-09T07:22:51.606Z,1310
2017-05-09T07:23:51.583Z,1295
2017-05-09T07:24:51.269Z,1320
2017-05-09T07:25:51.561Z,1330
2017-05-09T07:26:51.539Z,1270
2017-05-09T07:27:51.520Z,1035
2017-05-09T07:28:51.502Z,1380
2017-05-09T07:29:51.499Z,1355
2017-05-09T07:30:51.488Z,1360
2017-05-09T07:31:51.464Z,1335
2017-05-09T07:32:51.457Z,1355
2017-05-09T07:33:51.442Z,1380
2017-05-09T07:34:51.415Z,1400
2017-05-09T07:35:51.408Z,1425
2017-05-09T07:36:51.386Z,1435
2017-05-09T07:37:51.378Z,1460
2017-05-09T07:38:51.374Z,1495
2017-05-09T07:39:51.350Z,1490
2017-05-09T07:40:51.323Z,1425
2017-05-09T07:41:51.311Z,1410
2017-05-09T07:42:51.313Z,1500
2017-05-09T07:43:51.280Z,1470
2017-05-09T07:44:51.269Z,1515
2017-05-09T07:45:51.256Z,1530
2017-05-09T07:46:51.251Z,1475
2017-05-09T07:47:51.232Z,1480
2017-05-09T07:48:51.226Z,1460
2017-05-09T07:49:51.202Z,1520
2017-05-09T07:50:51.195Z,1430
2017-05-09T07:51:51.165Z,1195
2017-05-09T07:52:51.171Z,1560
2017-05-09T07:53:50.842Z,1560
2017-05-09T07:54:51.140Z,1565
2017-05-09T07:55:51.164Z,1570
2017-05-09T07:56:51.226Z,1570
2017-05-09T07:57:51.091Z,1575
2017-05-09T07:58:51.076Z,1600
2017-05-09T07:59:50.769Z,1665
2017-05-09T08:00:51.103Z,1785
2017-05-09T08:01:50.738Z,1855
2017-05-09T08:02:51.025Z,1870
2017-05-09T08:03:51.022Z,1905
2017-05-09T08:04:51.000Z,1845
2017-05-09T08:05:50.993Z,1930
2017-05-09T08:06:50.968Z,1920
2017-05-09T08:07:50.955Z,1935
2017-05-09T08:08:50.639Z,1950
2017-05-09T08:09:50.634Z,1955
2017-05-09T08:10:50.640Z,1965
2017-05-09T08:11:50.905Z,1985
2017-05-09T08:12:50.893Z,1995
2017-05-09T08:13:50.891Z,2010
2017-05-09T08:14:50.881Z,2010
2017-05-09T08:15:50.863Z,2020
2017-05-09T08:16:50.853Z,2005
2017-05-09T08:17:50.607Z,1980
2017-05-09T08:18:50.828Z,1865
2017-05-09T08:19:51.068Z,1765
2017-05-09T08:20:50.813Z,1690
2017-05-09T08:21:50.498Z,1685
2017-05-09T08:22:50.776Z,1725
2017-05-09T08:23:50.490Z,1725
2017-05-09T08:24:50.765Z,1725
2017-05-09T08:25:50.748Z,1725
2017-05-09T08:26:50.744Z,1720
2017-05-09T08:27:50.718Z,1750
2017-05-09T08:28:50.714Z,1775
2017-05-09T08:29:50.698Z,1780
2017-05-09T08:30:50.689Z,1745
2017-05-09T08:31:50.720Z,1745
2017-05-09T08:32:50.712Z,1735
2017-05-09T08:33:50.663Z,1765
2017-05-09T08:34:50.642Z,1765
2017-05-09T08:35:50.319Z,1790
2017-05-09T08:36:50.624Z,1765
2017-05-09T08:37:51.105Z,1775
2017-05-09T08:38:50.286Z,1790
2017-05-09T08:39:50.576Z,1925
2017-05-09T08:40:50.570Z,2085
2017-05-09T08:41:50.562Z,2130
2017-05-09T08:42:50.571Z,2150
2017-05-09T08:43:50.534Z,2145
2017-05-09T08:44:50.540Z,2135
2017-05-09T08:45:50.205Z,2070
2017-05-09T08:46:50.508Z,2035
2017-05-09T08:47:50.497Z,1910
2017-05-09T08:48:50.485Z,1855
2017-05-09T08:49:50.469Z,1815
2017-05-09T08:50:50.499Z,1855
2017-05-09T08:51:50.448Z,1860
2017-05-09T08:52:49.821Z,1865
2017-05-09T08:53:50.421Z,1875
2017-05-09T08:54:50.426Z,1815
2017-05-09T08:55:50.391Z,1850
2017-05-09T08:56:50.380Z,1905
2017-05-09T08:57:50.379Z,1935
2017-05-09T08:58:50.356Z,1940
2017-05-09T08:59:50.357Z,1930
2017-05-09T09:00:50.343Z,1925
2017-05-09T09:01:50.376Z,1940
2017-05-09T09:02:50.381Z,1935
2017-05-09T09:03:50.313Z,1910
2017-05-09T09:04:50.344Z,1885
2017-05-09T09:05:50.283Z,1930
2017-05-09T09:06:49.980Z,1900
2017-05-09T09:07:50.266Z,1210
2017-05-09T09:08:50.265Z,1760
2017-05-09T09:09:49.942Z,1995
2017-05-09T09:10:50.233Z,1980
2017-05-09T09:11:50.223Z,1970
2017-05-09T09:12:49.952Z,1980
2017-05-09T09:13:49.891Z,2000
2017-05-09T09:14:50.190Z,2030
2017-05-09T09:15:50.177Z,2040
2017-05-09T09:16:49.867Z,2000
2017-05-09T09:17:50.163Z,1960
2017-05-09T09:18:50.143Z,1980
2017-05-09T09:19:50.132Z,1980
2017-05-09T09:20:50.168Z,1985
2017-05-09T09:21:50.112Z,1985
2017-05-09T09:22:50.396Z,1980
2017-05-09T09:23:50.083Z,2015
2017-05-09T09:24:50.075Z,2000
2017-05-09T09:25:50.105Z,1825
2017-05-09T09:26:50.043Z,2075
2017-05-09T09:27:50.034Z,2050
2017-05-09T09:28:50.013Z,2000
2017-05-09T09:29:50.018Z,2045
2017-05-09T09:30:49.696Z,1965
2017-05-09T09:31:49.985Z,1990
2017-05-09T09:32:49.687Z,1990
2017-05-09T09:33:49.955Z,1930
2017-05-09T09:34:49.971Z,2005
2017-05-09T09:35:49.934Z,2005
2017-05-09T09:36:49.922Z,2065
2017-05-09T09:37:49.913Z,2105
2017-05-09T09:38:49.617Z,2105
2017-05-09T09:39:49.896Z,2100
2017-05-09T09:40:49.896Z,2120
2017-05-09T09:41:49.877Z,2165
2017-05-09T09:42:49.877Z,2175
2017-05-09T09:43:49.855Z,2165
2017-05-09T09:44:49.843Z,2185
2017-05-09T09:45:49.838Z,2190
2017-05-09T09:46:49.826Z,2190
2017-05-09T09:47:49.812Z,2195
2017-05-09T09:48:49.818Z,2220
2017-05-09T09:49:49.781Z,2210
2017-05-09T09:50:49.758Z,2150
2017-05-09T09:51:49.757Z,2045
2017-05-09T09:52:49.743Z,2095
2017-05-09T09:53:49.738Z,2090
2017-05-09T09:54:49.423Z,1795
2017-05-09T09:55:49.703Z,335
2017-05-09T09:56:49.697Z,330
2017-05-09T09:57:49.937Z,585
2017-05-09T09:58:49.378Z,2155
2017-05-09T09:59:49.659Z,2165
2017-05-09T10:00:49.640Z,2165
2017-05-09T10:01:49.324Z,1605
2017-05-09T10:02:49.609Z,2145
2017-05-09T10:03:49.612Z,1460
2017-05-09T10:04:49.579Z,2220
2017-05-09T10:05:49.570Z,2215
2017-05-09T10:06:49.556Z,2260
2017-05-09T10:07:49.561Z,2275
2017-05-09T10:08:49.538Z,2260
2017-05-09T10:09:49.520Z,2260
2017-05-09T10:10:49.505Z,2250
2017-05-09T10:11:49.495Z,2155
2017-05-09T10:12:48.927Z,2230
2017-05-09T10:13:49.166Z,2205
2017-05-09T10:14:49.463Z,1990
2017-05-09T10:15:49.477Z,2255
2017-05-09T10:16:49.434Z,2280
2017-05-09T10:17:49.420Z,2290
2017-05-09T10:18:49.414Z,2320
2017-05-09T10:19:49.407Z,2345
2017-05-09T10:20:49.382Z,2365
2017-05-09T10:21:49.365Z,2420
2017-05-09T10:22:49.369Z,2435
2017-05-09T10:23:49.096Z,2505
2017-05-09T10:24:49.338Z,2520
2017-05-09T10:25:49.325Z,2540
2017-05-09T10:26:49.308Z,2375
2017-05-09T10:27:49.317Z,2390
2017-05-09T10:28:48.992Z,2495
2017-05-09T10:29:49.295Z,2595
2017-05-09T10:30:49.270Z,1980
2017-05-09T10:31:49.315Z,2685
2017-05-09T10:32:49.246Z,2700
2017-05-09T10:33:49.232Z,2145
2017-05-09T10:34:49.279Z,2380
2017-05-09T10:35:49.209Z,1270
2017-05-09T10:36:49.202Z,660
2017-05-09T10:37:49.191Z,600
2017-05-09T10:38:48.900Z,670
2017-05-09T10:39:49.426Z,570
2017-05-09T10:40:49.148Z,555
2017-05-09T10:41:49.172Z,565
2017-05-09T10:42:48.826Z,1000
2017-05-09T10:43:48.806Z,620
2017-05-09T10:44:49.093Z,590
2017-05-09T10:45:48.774Z,625
2017-05-09T10:46:49.060Z,1160
2017-05-09T10:47:49.072Z,1675
2017-05-09T10:48:49.042Z,2580
2017-05-09T10:49:49.010Z,2545
2017-05-09T10:50:48.749Z,2805
2017-05-09T10:51:48.682Z,2755
2017-05-09T10:52:48.967Z,1525
2017-05-09T10:53:48.660Z,785
2017-05-09T10:54:48.941Z,745
2017-05-09T10:55:48.974Z,685
2017-05-09T10:56:48.962Z,755
2017-05-09T10:57:48.901Z,2000
2017-05-09T10:58:48.869Z,2625
2017-05-09T10:59:48.853Z,1295
2017-05-09T11:00:48.841Z,1545
2017-05-09T11:01:48.840Z,620
2017-05-09T11:02:48.857Z,505
2017-05-09T11:03:48.791Z,460
2017-05-09T11:04:48.783Z,435
2017-05-09T11:05:48.159Z,425
2017-05-09T11:06:48.734Z,430
2017-05-09T11:07:48.732Z,455
2017-05-09T11:08:48.414Z,470
2017-05-09T11:09:48.709Z,465
2017-05-09T11:10:48.673Z,440
2017-05-09T11:11:48.359Z,430
2017-05-09T11:12:48.043Z,440
2017-05-09T11:13:48.320Z,440
2017-05-09T11:14:48.622Z,440
2017-05-09T11:15:48.285Z,445
2017-05-09T11:16:48.269Z,455
2017-05-09T11:17:48.552Z,475
2017-05-09T11:18:48.279Z,495
2017-05-09T11:19:48.505Z,470
2017-05-09T11:20:48.502Z,505
2017-05-09T11:22:48.442Z,545
2017-05-09T11:23:48.451Z,575
2017-05-09T11:24:48.422Z,590
2017-05-09T11:25:48.394Z,600
2017-05-09T11:26:47.797Z,540
2017-05-09T11:27:48.054Z,510
2017-05-09T11:28:48.331Z,505
2017-05-09T11:29:48.030Z,500
2017-05-09T11:30:48.313Z,490
2017-05-09T11:31:47.986Z,490
2017-05-09T11:32:47.976Z,485
2017-05-09T11:33:48.235Z,470
2017-05-09T11:34:47.922Z,470
2017-05-09T11:35:48.209Z,465
2017-05-09T11:36:48.234Z,475
2017-05-09T11:37:48.162Z,485
2017-05-09T11:38:48.443Z,485
2017-05-09T11:39:48.118Z,475
2017-05-09T11:40:47.792Z,470
2017-05-09T11:41:47.501Z,460
2017-05-09T11:42:48.066Z,450
2017-05-09T11:43:48.058Z,445
2017-05-09T11:44:48.024Z,460
2017-05-09T11:45:48.001Z,485
2017-05-09T11:46:47.975Z,500
2017-05-09T11:47:47.959Z,520
2017-05-09T11:48:47.992Z,550
2017-05-09T11:49:47.630Z,570
2017-05-09T11:50:47.598Z,575
2017-05-09T11:51:47.897Z,580
2017-05-09T11:52:47.876Z,585
2017-05-09T11:53:47.901Z,575
2017-05-09T11:54:47.832Z,560
2017-05-09T11:55:47.799Z,545
2017-05-09T11:56:47.795Z,550
2017-05-09T11:57:47.766Z,540
2017-05-09T11:58:47.801Z,550
2017-05-09T11:59:47.726Z,540
2017-05-09T12:00:47.722Z,535
2017-05-09T12:01:47.785Z,540
2017-05-09T12:02:47.764Z,540
2017-05-09T12:03:47.344Z,540
2017-05-09T12:04:47.653Z,520
2017-05-09T12:05:47.930Z,520
2017-05-09T12:06:47.587Z,520
2017-05-09T12:07:47.571Z,520
2017-05-09T12:08:47.598Z,505
2017-05-09T12:09:47.521Z,505
2017-05-09T12:10:47.518Z,510
2017-05-09T12:11:47.186Z,510
2017-05-09T12:12:47.165Z,530
2017-05-09T12:13:47.452Z,550
2017-05-09T12:14:47.421Z,560
2017-05-09T12:15:47.413Z,555
2017-05-09T12:16:47.391Z,540
2017-05-09T12:17:47.385Z,555
2017-05-09T12:18:47.361Z,565
2017-05-09T12:19:47.342Z,565
2017-05-09T12:20:47.360Z,555
2017-05-09T12:21:47.286Z,555
2017-05-09T12:22:46.973Z,565
2017-05-09T12:23:47.249Z,560
2017-05-09T12:24:47.233Z,560
2017-05-09T12:25:47.214Z,555
2017-05-09T12:26:47.249Z,555
2017-05-09T12:27:47.187Z,555
2017-05-09T12:28:47.222Z,550
2017-05-09T12:29:47.137Z,540
2017-05-09T12:30:47.123Z,530
2017-05-09T12:31:47.088Z,515
2017-05-09T12:32:47.085Z,515
2017-05-09T12:33:47.107Z,535
2017-05-09T12:34:47.039Z,545
2017-05-09T12:35:47.021Z,570
2017-05-09T12:36:47.005Z,590
2017-05-09T12:37:46.373Z,615
2017-05-09T12:38:46.707Z,605
2017-05-09T12:39:46.642Z,605
2017-05-09T12:40:46.974Z,600
2017-05-09T12:41:46.606Z,580
2017-05-09T12:42:46.933Z,570
2017-05-09T12:43:46.862Z,565
2017-05-09T12:44:46.839Z,560
2017-05-09T12:45:46.866Z,545
2017-05-09T12:46:46.800Z,530
2017-05-09T12:47:46.772Z,525
2017-05-09T12:48:46.761Z,515
2017-05-09T12:49:46.794Z,505
2017-05-09T12:50:46.419Z,500
2017-05-09T12:51:46.714Z,495
2017-05-09T12:52:46.691Z,495
2017-05-09T12:53:46.669Z,500
2017-05-09T12:54:46.652Z,495
2017-05-09T12:55:46.627Z,495
2017-05-09T12:56:46.614Z,495
2017-05-09T12:57:46.588Z,500
2017-05-09T12:58:45.683Z,500
2017-05-09T12:59:46.557Z,500
2017-05-09T13:00:46.231Z,495
2017-05-09T13:01:46.828Z,490
2017-05-09T13:02:46.484Z,490
2017-05-09T13:03:46.467Z,490
2017-05-09T13:04:46.450Z,485
2017-05-09T13:05:46.427Z,480
2017-05-09T13:06:46.408Z,475
2017-05-09T13:07:45.203Z,475
2017-05-09T13:08:46.362Z,475
2017-05-09T13:09:46.368Z,475
2017-05-09T13:10:46.329Z,465
2017-05-09T13:11:46.011Z,460
2017-05-09T13:12:46.332Z,445
2017-05-09T13:13:46.275Z,435
2017-05-09T13:14:45.950Z,435
2017-05-09T13:15:45.930Z,440
2017-05-09T13:16:46.230Z,450
2017-05-09T13:17:46.188Z,460
2017-05-09T13:18:45.891Z,470
2017-05-09T13:19:46.155Z,480
2017-05-09T13:20:46.125Z,485
2017-05-09T13:21:46.109Z,495
2017-05-09T13:22:46.088Z,500
2017-05-09T13:23:46.071Z,505
2017-05-09T13:24:46.068Z,510
2017-05-09T13:25:46.032Z,515
2017-05-09T13:26:46.007Z,515
2017-05-09T13:27:45.984Z,520
2017-05-09T13:28:45.968Z,505
2017-05-09T13:29:45.994Z,505
2017-05-09T13:30:45.928Z,510
2017-05-09T13:31:46.258Z,515
2017-05-09T13:32:45.886Z,530
2017-05-09T13:33:45.866Z,535
2017-05-09T13:34:45.842Z,545
2017-05-09T13:35:45.825Z,540
2017-05-09T13:36:44.914Z,540
2017-05-09T13:37:45.782Z,545
2017-05-09T13:38:45.769Z,545
2017-05-09T13:39:45.446Z,540
2017-05-09T13:40:45.774Z,525
2017-05-09T13:41:45.704Z,515
2017-05-09T13:42:45.745Z,515
2017-05-09T13:43:45.706Z,510
2017-05-09T13:44:45.639Z,505
2017-05-09T13:45:45.629Z,520
2017-05-09T13:46:45.606Z,505
2017-05-09T13:47:44.694Z,505
2017-05-09T13:48:45.567Z,500
2017-05-09T13:49:45.601Z,505
2017-05-09T13:50:45.538Z,495
2017-05-09T13:51:45.519Z,475
2017-05-09T13:52:45.530Z,465
2017-05-09T13:53:45.469Z,435
2017-05-09T13:54:45.443Z,415